Time;durP1;ratioP1;P1;durP2;ratioP2;P2;SDS_P1;SDS_P2;PMS_P1;PMS_P2;Temp;Humidity;BMP_temperature;BMP_pressure;BME280_temperature;BME280_humidity;BME280_pressure;Samples;Min_cycle;Max_cycle;Signal;HPM_P1;HPM_P2
2022/06/24 00:02:10;;;;;;;5.65;0.65;;;20.30;99.90;;;;;;5034183;28;20089;-78
2022/06/24 00:04:36;;;;;;;5.53;0.85;;;20.40;99.90;;;;;;5034582;28;20032;-77
2022/06/24 00:07:13;;;;;;;1.63;0.60;;;20.40;99.90;;;;;;5034034;28;20099;-78
2022/06/24 00:09:40;;;;;;;4.47;1.02;;;20.40;99.90;;;;;;5034491;28;20179;-77
2022/06/24 00:12:08;;;;;;;3.35;0.70;;;20.50;99.90;;;;;;5033892;28;20460;-77
2022/06/24 00:14:35;;;;;;;3.92;0.60;;;20.50;99.90;;;;;;5034245;28;20497;-77
2022/06/24 00:17:04;;;;;;;2.63;0.60;;;20.50;99.90;;;;;;5033876;28;20025;-77
2022/06/24 00:19:32;;;;;;;8.20;1.33;;;20.50;99.90;;;;;;5034471;28;20053;-77
2022/06/24 00:22:11;;;;;;;3.65;0.55;;;20.60;99.90;;;;;;5033588;28;20462;-80
2022/06/24 00:24:38;;;;;;;3.97;0.68;;;20.60;99.90;;;;;;5033839;28;20034;-78
2022/06/24 00:27:19;;;;;;;4.30;0.65;;;20.60;99.90;;;;;;5033654;28;20034;-78
2022/06/24 00:29:46;;;;;;;2.85;0.60;;;20.60;99.90;;;;;;5034008;28;20461;-78
2022/06/24 00:32:14;;;;;;;2.80;0.80;;;20.60;99.90;;;;;;5033693;28;20505;-78
2022/06/24 00:34:40;;;;;;;2.47;0.90;;;20.50;99.90;;;;;;5034036;28;20531;-78
2022/06/24 00:37:42;;;;;;;3.20;0.60;;;20.50;99.90;;;;;;5034769;28;20025;-78
2022/06/24 00:40:10;;;;;;;;;;;20.60;99.90;;;;;;4993116;28;20038;-77
2022/06/24 00:42:41;;;;;;;4.13;0.88;;;20.70;99.90;;;;;;5026524;28;19951;-77
2022/06/24 00:45:33;;;;;;;2.83;0.63;;;20.70;99.90;;;;;;5034907;28;20466;-77
2022/06/24 00:48:02;;;;;;;4.25;0.70;;;20.60;99.90;;;;;;5035185;28;20112;-81
2022/06/24 00:50:32;;;;;;;3.20;0.70;;;20.60;99.90;;;;;;5034535;28;20113;-78
2022/06/24 00:53:00;;;;;;;4.80;0.95;;;20.60;99.90;;;;;;5033965;28;20036;-78
2022/06/24 00:55:29;;;;;;;2.25;0.80;;;20.60;99.90;;;;;;5034166;28;20036;-78
2022/06/24 00:57:57;;;;;;;1.83;0.70;;;20.50;99.90;;;;;;5035228;28;20417;-78
2022/06/24 01:00:25;;;;;;;2.45;0.93;;;20.40;99.90;;;;;;5033305;28;20466;-78
2022/06/24 01:03:00;;;;;;;4.85;1.10;;;20.50;99.90;;;;;;5033955;28;20033;-78
2022/06/24 01:05:27;;;;;;;6.35;1.27;;;20.50;99.90;;;;;;5033837;28;20025;-78
2022/06/24 01:07:53;;;;;;;2.83;0.80;;;20.50;99.90;;;;;;5034882;28;20033;-77
2022/06/24 01:10:19;;;;;;;2.53;0.80;;;20.50;99.90;;;;;;5032556;28;20426;-77
2022/06/24 01:12:45;;;;;;;4.70;1.10;;;20.50;99.90;;;;;;5034252;28;20505;-78
2022/06/24 01:15:11;;;;;;;6.53;0.85;;;20.50;99.90;;;;;;5033063;28;20112;-78
2022/06/24 01:17:37;;;;;;;4.22;0.85;;;20.50;99.90;;;;;;5034618;28;20026;-78
2022/06/24 01:20:07;;;;;;;3.03;1.02;;;20.50;99.90;;;;;;5032995;28;20022;-77
2022/06/24 01:22:32;;;;;;;2.90;0.70;;;20.50;99.90;;;;;;5033130;28;20057;-77
2022/06/24 01:24:58;;;;;;;4.95;0.50;;;20.50;99.90;;;;;;5033317;28;20056;-78
2022/06/24 01:27:23;;;;;;;2.95;0.70;;;20.50;99.90;;;;;;5032762;28;20025;-78
2022/06/24 01:29:49;;;;;;;2.88;0.90;;;20.50;99.90;;;;;;5034494;28;20480;-78
2022/06/24 01:32:15;;;;;;;4.97;1.15;;;20.60;99.90;;;;;;5032711;28;20036;-78
2022/06/24 01:34:40;;;;;;;2.78;1.00;;;20.60;99.90;;;;;;5033107;28;20034;-77
2022/06/24 01:37:06;;;;;;;3.03;0.95;;;20.60;99.90;;;;;;5032677;28;20029;-78
2022/06/24 01:39:32;;;;;;;1.90;0.80;;;20.60;99.90;;;;;;5032846;28;20466;-77
2022/06/24 01:41:58;;;;;;;3.65;0.95;;;20.40;99.90;;;;;;5033125;28;20038;-78
2022/06/24 01:44:24;;;;;;;3.97;0.77;;;20.50;99.90;;;;;;5032556;28;20470;-78
2022/06/24 01:46:51;;;;;;;4.68;0.82;;;20.50;99.90;;;;;;5033148;28;20075;-78
2022/06/24 01:49:17;;;;;;;2.00;0.70;;;20.50;99.90;;;;;;5032599;28;20072;-79
2022/06/24 01:51:46;;;;;;;4.22;0.90;;;20.50;99.90;;;;;;5033037;28;20478;-79
2022/06/24 01:54:12;;;;;;;3.13;1.20;;;20.50;99.90;;;;;;5032767;28;20463;-79
2022/06/24 01:56:37;;;;;;;4.35;1.05;;;20.60;99.90;;;;;;5032768;28;20071;-79
2022/06/24 01:59:03;;;;;;;1.83;0.70;;;20.60;99.90;;;;;;5033691;28;20055;-79
2022/06/24 02:01:29;;;;;;;7.55;1.00;;;20.50;99.90;;;;;;5032766;28;20021;-77
2022/06/24 02:03:54;;;;;;;3.33;0.70;;;20.50;99.90;;;;;;5033864;28;20107;-77
2022/06/24 02:06:20;;;;;;;3.20;0.60;;;20.50;99.90;;;;;;5033185;28;20026;-77
2022/06/24 02:08:46;;;;;;;0.93;0.60;;;20.50;99.90;;;;;;5031789;28;20121;-77
2022/06/24 02:13:59;;;;;;;4.57;0.75;;;20.50;99.90;;;;;;5033708;28;20041;-77
2022/06/24 02:16:26;;;;;;;6.03;0.75;;;20.50;99.90;;;;;;5031741;28;20065;-77
2022/06/24 02:18:54;;;;;;;5.32;1.00;;;20.50;99.90;;;;;;5032070;28;20029;-77
2022/06/24 02:21:23;;;;;;;1.85;0.85;;;20.40;99.90;;;;;;5031715;28;20026;-77
2022/06/24 02:23:49;;;;;;;1.73;0.70;;;20.40;99.90;;;;;;5033368;28;20489;-77
2022/06/24 02:26:15;;;;;;;4.78;1.20;;;20.30;99.90;;;;;;5032815;28;20522;-77
2022/06/24 02:28:41;;;;;;;4.53;0.98;;;20.40;99.90;;;;;;5032050;28;20057;-78
2022/06/24 02:31:06;;;;;;;5.25;0.80;;;20.40;99.90;;;;;;5032808;28;20028;-78
2022/06/24 02:33:33;;;;;;;4.32;0.70;;;20.30;99.90;;;;;;5032144;28;20034;-77
2022/06/24 02:35:58;;;;;;;1.90;1.00;;;20.40;99.90;;;;;;5031736;28;20470;-77
2022/06/24 02:38:24;;;;;;;2.25;0.65;;;20.30;99.90;;;;;;5032370;28;20112;-77
2022/06/24 02:40:51;;;;;;;3.83;0.70;;;20.30;99.90;;;;;;5033113;28;20029;-77
2022/06/24 02:43:32;;;;;;;2.03;0.80;;;20.30;99.90;;;;;;5032813;28;20416;-78
2022/06/24 02:46:01;;;;;;;6.22;1.10;;;20.20;99.90;;;;;;5032159;28;20079;-78
2022/06/24 02:48:28;;;;;;;2.85;0.90;;;20.20;99.90;;;;;;5031480;28;20029;-78
2022/06/24 02:50:56;;;;;;;6.50;0.90;;;20.20;99.90;;;;;;5031743;28;20026;-78
2022/06/24 02:53:22;;;;;;;10.05;1.17;;;20.20;99.90;;;;;;5031363;28;20167;-78
2022/06/24 02:55:55;;;;;;;4.97;1.25;;;20.30;99.90;;;;;;5032013;28;20025;-77
2022/06/24 02:58:22;;;;;;;3.63;1.17;;;20.20;99.90;;;;;;5031317;28;20033;-78
2022/06/24 03:00:48;;;;;;;2.92;1.00;;;20.20;99.90;;;;;;5031486;28;20029;-78
2022/06/24 03:03:15;;;;;;;2.58;0.90;;;20.20;99.90;;;;;;5031666;28;20036;-77
2022/06/24 03:05:41;;;;;;;7.13;1.45;;;20.10;99.90;;;;;;5031675;28;20068;-77
2022/06/24 03:08:10;;;;;;;3.92;1.23;;;20.20;99.90;;;;;;5031512;28;20026;-80
2022/06/24 03:10:36;;;;;;;3.95;1.00;;;20.10;99.90;;;;;;5031619;28;20133;-77
2022/06/24 03:13:02;;;;;;;2.80;1.08;;;20.10;99.90;;;;;;5030900;28;20125;-77
2022/06/24 03:15:28;;;;;;;3.80;1.00;;;20.10;99.90;;;;;;5030957;28;20037;-77
2022/06/24 03:17:54;;;;;;;5.15;0.93;;;20.10;99.90;;;;;;5032740;28;20034;-77
2022/06/24 03:20:19;;;;;;;2.78;0.98;;;20.00;99.90;;;;;;5031155;28;20459;-77
2022/06/24 03:22:45;;;;;;;5.35;1.00;;;20.00;99.90;;;;;;5031556;28;20026;-77
2022/06/24 03:25:11;;;;;;;6.28;1.20;;;20.00;99.90;;;;;;5014773;28;20112;-79
2022/06/24 03:27:37;;;;;;;4.50;1.10;;;20.00;99.90;;;;;;5031389;28;20025;-77
2022/06/24 03:30:04;;;;;;;5.22;0.80;;;20.00;99.90;;;;;;5032497;28;20470;-77
2022/06/24 03:32:30;;;;;;;5.82;1.33;;;19.90;99.90;;;;;;5032043;28;20071;-77
2022/06/24 03:34:56;;;;;;;2.72;0.88;;;19.90;99.90;;;;;;5031202;28;20463;-77
2022/06/24 03:37:21;;;;;;;3.30;1.00;;;19.90;99.90;;;;;;5032229;28;20021;-78
2022/06/24 03:39:47;;;;;;;5.68;0.82;;;19.90;99.90;;;;;;5031407;28;20490;-77
2022/06/24 03:42:12;;;;;;;3.63;1.13;;;19.80;99.90;;;;;;5014455;28;20075;-78
2022/06/24 03:44:38;;;;;;;3.42;0.90;;;19.70;99.90;;;;;;5030971;28;20051;-77
2022/06/24 03:47:04;;;;;;;2.42;1.00;;;19.80;99.90;;;;;;5031458;28;20036;-77
2022/06/24 03:49:30;;;;;;;3.38;0.90;;;19.80;99.90;;;;;;5032163;28;20537;-77
2022/06/24 03:51:55;;;;;;;7.93;1.20;;;19.80;99.90;;;;;;5031164;28;20035;-77
2022/06/24 03:54:22;;;;;;;4.22;1.30;;;19.80;99.90;;;;;;5030697;28;20025;-77
2022/06/24 03:56:47;;;;;;;3.55;0.90;;;19.70;99.90;;;;;;5032046;28;20092;-77
2022/06/24 03:59:13;;;;;;;5.22;1.30;;;19.70;99.90;;;;;;5031738;28;20061;-78
2022/06/24 04:01:39;;;;;;;3.67;1.30;;;19.70;99.90;;;;;;5030968;28;20036;-77
2022/06/24 04:04:05;;;;;;;4.18;1.20;;;19.70;99.90;;;;;;5031020;28;20033;-77
2022/06/24 04:06:31;;;;;;;3.70;1.20;;;19.70;99.90;;;;;;5030518;28;20034;-77
2022/06/24 04:08:57;;;;;;;2.20;0.95;;;19.70;99.90;;;;;;5030507;28;20124;-77
2022/06/24 04:11:23;;;;;;;3.72;1.20;;;19.70;99.90;;;;;;5031959;28;20040;-77
2022/06/24 04:13:49;;;;;;;5.45;1.10;;;19.60;99.90;;;;;;5033835;28;20498;-77
2022/06/24 04:16:15;;;;;;;5.68;1.15;;;19.60;99.90;;;;;;5035180;28;20030;-78
2022/06/24 04:18:40;;;;;;;4.90;1.20;;;19.50;99.90;;;;;;5035802;28;20026;-77
2022/06/24 04:21:16;;;;;;;3.15;1.10;;;19.60;99.90;;;;;;5034595;28;20355;-77
2022/06/24 04:23:42;;;;;;;5.82;1.40;;;19.70;99.90;;;;;;5018022;28;20036;-77
2022/06/24 04:26:08;;;;;;;5.93;1.30;;;19.70;99.90;;;;;;5034337;28;20025;-77
2022/06/24 04:28:34;;;;;;;3.80;1.27;;;19.70;99.90;;;;;;5033525;28;20022;-77
2022/06/24 04:31:00;;;;;;;3.05;1.38;;;19.80;99.90;;;;;;5035625;28;20021;-78
2022/06/24 04:33:26;;;;;;;9.25;2.13;;;19.70;99.90;;;;;;5034270;28;20390;-79
2022/06/24 04:35:52;;;;;;;7.10;1.63;;;19.80;99.90;;;;;;5034668;28;20040;-79
2022/06/24 04:38:18;;;;;;;2.30;1.35;;;19.90;99.90;;;;;;5035154;28;20030;-79
2022/06/24 04:40:43;;;;;;;6.07;2.05;;;20.00;99.90;;;;;;5035661;28;20083;-78
2022/06/24 04:43:09;;;;;;;7.07;1.65;;;20.00;99.90;;;;;;5033997;28;20029;-78
2022/06/24 04:45:36;;;;;;;7.70;2.00;;;20.00;99.90;;;;;;5033559;28;20021;-78
2022/06/24 04:48:02;;;;;;;4.57;1.90;;;19.90;99.90;;;;;;5033698;28;20029;-78
2022/06/24 04:50:29;;;;;;;5.70;1.77;;;19.80;99.90;;;;;;5034752;28;20022;-78
2022/06/24 04:52:54;;;;;;;6.35;1.67;;;19.80;99.90;;;;;;5034283;28;20087;-78
2022/06/24 04:55:20;;;;;;;5.53;1.88;;;19.80;99.90;;;;;;5033788;28;20033;-78
2022/06/24 04:57:47;;;;;;;6.55;1.75;;;19.90;99.90;;;;;;5017693;28;20470;-78
2022/06/24 05:00:13;;;;;;;5.43;1.83;;;19.90;99.90;;;;;;5029352;28;20355;-79
2022/06/24 05:02:40;;;;;;;6.68;2.00;;;19.90;99.90;;;;;;5033200;28;20025;-78
2022/06/24 05:05:07;;;;;;;6.30;1.70;;;19.90;99.90;;;;;;5035480;28;20370;-78
2022/06/24 05:07:33;;;;;;;5.65;1.92;;;20.00;99.90;;;;;;5033441;28;20025;-78
2022/06/24 05:09:58;;;;;;;9.93;2.00;;;19.90;99.90;;;;;;5022117;28;20099;-78
2022/06/24 05:12:24;;;;;;;4.97;1.83;;;19.80;99.90;;;;;;5018594;28;20037;-78
2022/06/24 05:14:50;;;;;;;6.93;1.80;;;19.80;99.90;;;;;;5013714;28;20034;-77
2022/06/24 05:17:15;;;;;;;11.57;2.20;;;19.90;99.90;;;;;;5013069;28;20033;-80
2022/06/24 05:19:41;;;;;;;4.65;1.90;;;19.90;99.90;;;;;;5013862;28;20080;-78
2022/06/24 05:22:07;;;;;;;4.03;1.92;;;19.90;99.90;;;;;;5006200;28;20036;-77
2022/06/24 05:24:32;;;;;;;6.35;2.00;;;19.80;99.90;;;;;;4995195;28;20108;-78
2022/06/24 05:26:58;;;;;;;8.23;2.35;;;19.80;99.90;;;;;;5011767;28;20375;-78
2022/06/24 05:29:23;;;;;;;11.52;2.58;;;19.70;99.90;;;;;;4995901;28;20478;-78
2022/06/24 05:31:49;;;;;;;7.25;2.50;;;19.70;99.90;;;;;;5014279;28;20049;-77
2022/06/24 05:34:15;;;;;;;7.78;2.67;;;19.70;99.90;;;;;;5013228;28;20030;-77
2022/06/24 05:36:41;;;;;;;6.25;2.17;;;19.70;99.90;;;;;;5012859;28;20033;-78
2022/06/24 05:39:07;;;;;;;9.90;3.00;;;19.70;99.90;;;;;;5014699;28;20105;-79
2022/06/24 05:41:34;;;;;;;3.65;2.38;;;19.70;99.90;;;;;;5013007;28;20065;-78
2022/06/24 05:44:02;;;;;;;7.32;2.60;;;19.70;99.90;;;;;;5013473;28;20036;-78
2022/06/24 05:46:28;;;;;;;9.45;2.75;;;19.70;99.90;;;;;;5009002;28;20030;-79
2022/06/24 05:48:53;;;;;;;5.97;3.05;;;19.80;99.90;;;;;;5013193;28;20153;-78
2022/06/24 05:51:19;;;;;;;9.07;2.72;;;19.90;99.90;;;;;;5012755;28;20029;-79
2022/06/24 05:56:30;;;;;;;5.93;2.50;;;19.90;99.90;;;;;;5013744;28;20076;-78
2022/06/24 05:58:57;;;;;;;6.60;3.10;;;19.90;99.90;;;;;;4996884;28;20462;-78
2022/06/24 06:01:23;;;;;;;7.00;2.78;;;19.90;99.90;;;;;;4996274;28;20037;-78
2022/06/24 06:03:49;;;;;;;5.32;2.70;;;19.90;99.90;;;;;;5014004;28;20025;-78
2022/06/24 06:06:15;;;;;;;8.32;3.03;;;19.90;99.90;;;;;;5014106;28;20028;-78
2022/06/24 06:08:41;;;;;;;7.97;2.17;;;19.90;99.90;;;;;;4995614;28;20486;-78
2022/06/24 06:11:33;;;;;;;6.32;2.30;;;20.00;99.90;;;;;;5013941;28;20041;-78
2022/06/24 06:13:58;;;;;;;;;;;20.10;99.90;;;;;;5011375;28;20042;-78
2022/06/24 06:16:26;;;;;;;9.30;3.38;;;20.20;99.90;;;;;;5012907;28;19913;-79
2022/06/24 06:18:52;;;;;;;8.80;2.50;;;20.30;99.90;;;;;;5013624;28;20018;-78
2022/06/24 06:21:18;;;;;;;4.55;2.60;;;20.30;99.90;;;;;;5012414;28;20022;-79
2022/06/24 06:23:44;;;;;;;7.45;2.58;;;20.40;99.90;;;;;;5013484;28;20041;-78
2022/06/24 06:26:11;;;;;;;6.85;2.13;;;20.50;99.90;;;;;;5013379;28;20363;-77
2022/06/24 06:28:37;;;;;;;6.75;1.92;;;20.60;99.90;;;;;;4995543;28;20074;-79
2022/06/24 06:31:04;;;;;;;7.00;2.25;;;20.60;99.90;;;;;;4995718;28;20030;-78
2022/06/24 06:33:31;;;;;;;7.47;2.20;;;20.60;99.90;;;;;;5012054;28;20038;-77
2022/06/24 06:36:11;;;;;;;5.38;2.15;;;20.60;99.90;;;;;;5013166;28;20026;-78
2022/06/24 06:38:37;;;;;;;6.28;1.83;;;20.70;99.90;;;;;;5011670;28;20030;-79
2022/06/24 06:41:03;;;;;;;6.43;2.13;;;20.70;99.90;;;;;;5013314;28;20410;-77
2022/06/24 06:43:29;;;;;;;7.93;2.03;;;20.80;99.90;;;;;;5011979;28;20037;-79
2022/06/24 06:45:55;;;;;;;6.22;2.05;;;20.90;99.90;;;;;;5013204;28;20033;-78
2022/06/24 06:48:21;;;;;;;7.43;2.15;;;20.90;99.90;;;;;;4995245;28;20061;-79
2022/06/24 06:50:47;;;;;;;4.93;1.88;;;20.90;99.90;;;;;;4993480;28;20377;-79
2022/06/24 06:53:13;;;;;;;7.65;1.90;;;20.90;99.90;;;;;;4992739;28;20125;-79
2022/06/24 06:55:38;;;;;;;5.75;1.80;;;20.90;99.90;;;;;;5008340;28;20100;-78
2022/06/24 06:58:04;;;;;;;5.60;2.28;;;21.00;99.90;;;;;;4993578;28;20030;-78
2022/06/24 07:00:30;;;;;;;4.10;1.83;;;21.10;99.90;;;;;;5008237;28;20414;-78
2022/06/24 07:02:56;;;;;;;3.88;1.90;;;21.20;99.90;;;;;;5008815;28;20027;-78
2022/06/24 07:05:21;;;;;;;4.30;1.90;;;21.20;99.90;;;;;;5008358;28;20022;-79
2022/06/24 07:07:48;;;;;;;2.65;1.73;;;21.20;99.90;;;;;;5011202;28;20025;-78
2022/06/24 07:10:13;;;;;;;4.63;1.70;;;21.10;99.90;;;;;;5025345;28;20084;-78
2022/06/24 07:12:39;;;;;;;5.15;1.70;;;21.20;99.90;;;;;;5030764;28;20140;-78
2022/06/24 07:15:06;;;;;;;3.90;1.80;;;21.20;99.90;;;;;;5016007;28;20041;-77
2022/06/24 07:17:32;;;;;;;4.32;1.75;;;21.20;99.90;;;;;;5023708;28;20026;-77
2022/06/24 07:19:57;;;;;;;9.05;2.38;;;21.20;99.90;;;;;;5012438;28;20486;-77
2022/06/24 07:22:23;;;;;;;3.67;1.65;;;21.20;99.90;;;;;;5010986;28;20489;-78
2022/06/24 07:24:48;;;;;;;4.20;1.63;;;21.20;99.90;;;;;;5012885;28;20449;-77
2022/06/24 07:27:14;;;;;;;3.58;1.85;;;21.20;99.90;;;;;;5011826;28;20033;-77
2022/06/24 07:29:40;;;;;;;4.68;1.42;;;21.20;99.90;;;;;;5011096;28;20030;-78
2022/06/24 07:32:07;;;;;;;3.70;1.60;;;21.20;99.90;;;;;;5011676;28;20169;-78
2022/06/24 07:34:33;;;;;;;3.05;1.40;;;21.20;99.90;;;;;;5027535;28;20079;-78
2022/06/24 07:37:01;;;;;;;1.90;1.45;;;21.20;99.90;;;;;;5020274;28;20041;-78
2022/06/24 07:39:27;;;;;;;4.43;1.20;;;21.30;99.90;;;;;;5004048;28;20085;-81
2022/06/24 07:41:54;;;;;;;5.47;1.65;;;21.40;99.90;;;;;;5011744;28;20036;-78
2022/06/24 07:44:20;;;;;;;4.90;1.90;;;21.50;99.90;;;;;;5005699;28;20030;-78
2022/06/24 07:46:47;;;;;;;4.47;1.48;;;21.60;99.90;;;;;;5003779;28;20018;-78
2022/06/24 07:49:13;;;;;;;5.75;1.73;;;21.70;99.90;;;;;;5004083;28;20105;-79
2022/06/24 07:51:39;;;;;;;6.30;1.50;;;21.80;99.90;;;;;;5006461;28;20046;-79
2022/06/24 07:54:07;;;;;;;4.03;1.52;;;21.70;99.90;;;;;;5006502;28;20038;-78
2022/06/24 07:59:21;;;;;;;4.13;1.73;;;21.80;99.90;;;;;;5011835;28;20033;-79
2022/06/24 08:01:47;;;;;;;2.80;1.20;;;21.80;99.90;;;;;;5004066;28;20030;-78
2022/06/24 08:04:14;;;;;;;5.68;1.65;;;21.80;99.90;;;;;;4998926;28;20471;-77
2022/06/24 08:06:49;;;;;;;2.72;1.20;;;21.90;99.90;;;;;;5021360;28;20093;-79
2022/06/24 08:09:14;;;;;;;5.30;1.70;;;22.00;99.90;;;;;;5015542;28;20133;-76
2022/06/24 08:11:41;;;;;;;3.90;1.70;;;21.90;99.90;;;;;;5020597;28;20120;-77
2022/06/24 08:14:06;;;;;;;3.13;1.42;;;21.90;99.90;;;;;;5019817;28;20042;-78
2022/06/24 08:16:32;;;;;;;3.30;1.70;;;21.90;99.90;;;;;;5023694;28;20367;-78
2022/06/24 08:18:58;;;;;;;2.53;1.60;;;22.00;99.90;;;;;;5026389;28;20529;-77
2022/06/24 08:21:23;;;;;;;3.63;1.60;;;22.00;99.90;;;;;;5018994;28;20030;-78
2022/06/24 08:23:49;;;;;;;3.70;1.30;;;22.10;99.90;;;;;;5024586;28;20036;-78
2022/06/24 08:26:16;;;;;;;2.28;1.60;;;22.10;99.90;;;;;;5021616;28;20079;-78
2022/06/24 08:28:42;;;;;;;6.57;1.38;;;22.20;99.90;;;;;;5019833;28;20022;-78
2022/06/24 08:31:07;;;;;;;4.18;1.30;;;22.30;99.90;;;;;;4994658;28;20033;-77
2022/06/24 08:33:33;;;;;;;3.65;1.27;;;22.40;99.90;;;;;;4990677;28;20485;-81
2022/06/24 08:35:59;;;;;;;4.40;1.17;;;22.40;99.90;;;;;;5016476;28;20030;-86
2022/06/24 08:38:26;;;;;;;4.05;1.40;;;22.50;99.90;;;;;;5016287;28;20387;-87
2022/06/24 08:40:54;;;;;;;3.58;1.00;;;22.60;99.90;;;;;;5017346;28;20026;-85
2022/06/24 08:43:23;;;;;;;6.72;1.13;;;22.70;99.90;;;;;;5001852;28;20387;-85
2022/06/24 08:45:49;;;;;;;3.50;1.45;;;22.80;99.90;;;;;;5014917;28;20026;-82
2022/06/24 08:48:16;;;;;;;2.40;1.00;;;22.80;99.90;;;;;;5028161;28;20029;-82
2022/06/24 08:50:42;;;;;;;3.95;1.85;;;22.80;99.90;;;;;;5012291;28;20032;-83
2022/06/24 08:53:09;;;;;;;5.95;1.80;;;22.70;99.90;;;;;;5005812;28;20061;-83
2022/06/24 08:55:40;;;;;;;4.40;1.27;;;22.80;99.90;;;;;;5015327;28;20038;-83
2022/06/24 08:58:06;;;;;;;3.47;1.37;;;22.90;99.90;;;;;;5019959;28;20076;-79
2022/06/24 09:00:32;;;;;;;2.78;1.48;;;22.90;99.90;;;;;;5004003;28;20391;-80
2022/06/24 09:02:58;;;;;;;2.10;1.15;;;22.90;99.90;;;;;;5031162;28;20033;-79
2022/06/24 09:05:26;;;;;;;2.33;1.10;;;22.90;99.90;;;;;;5019368;28;20025;-81
2022/06/24 09:08:02;;;;;;;2.20;1.20;;;22.90;99.90;;;;;;5022574;28;20466;-80
2022/06/24 09:10:28;;;;;;;3.08;1.05;;;22.90;99.90;;;;;;5012910;28;20085;-80
2022/06/24 09:12:54;;;;;;;4.78;1.30;;;22.80;99.90;;;;;;5014991;28;20545;-81
2022/06/24 09:15:21;;;;;;;4.15;1.50;;;22.90;99.90;;;;;;5014205;28;20038;-80
2022/06/24 09:17:47;;;;;;;5.63;1.13;;;22.80;99.90;;;;;;5013950;28;20022;-81
2022/06/24 09:20:15;;;;;;;3.88;1.48;;;22.80;99.90;;;;;;5014113;28;20026;-78
2022/06/24 09:22:41;;;;;;;1.35;1.00;;;22.80;99.90;;;;;;5014438;28;20033;-78
2022/06/24 09:25:07;;;;;;;1.92;1.10;;;22.80;99.90;;;;;;5014950;28;20033;-78
2022/06/24 09:27:34;;;;;;;3.55;1.15;;;22.80;99.90;;;;;;4996918;28;20474;-79
2022/06/24 09:30:01;;;;;;;2.95;1.10;;;22.80;99.90;;;;;;5013681;28;20026;-79
2022/06/24 09:32:27;;;;;;;4.78;1.10;;;22.70;99.90;;;;;;5008002;28;20418;-81
2022/06/24 09:35:07;;;;;;;5.75;2.20;;;22.70;99.90;;;;;;5013998;28;20026;-80
2022/06/24 09:37:45;;;;;;;2.42;1.00;;;22.70;99.90;;;;;;4997215;28;20030;-80
2022/06/24 09:40:34;;;;;;;1.05;0.98;;;22.70;99.90;;;;;;4994311;28;20026;-80
2022/06/24 09:43:05;;;;;;;3.83;1.65;;;22.70;99.90;;;;;;5013529;28;20038;-80
2022/06/24 09:45:50;;;;;;;4.38;1.58;;;22.70;99.90;;;;;;5014329;28;20026;-81
2022/06/24 09:48:32;;;;;;;7.70;3.67;;;22.70;99.90;;;;;;4992601;28;20034;-78
2022/06/24 09:51:05;;;;;;;5.00;1.30;;;22.80;99.40;;;;;;5002541;28;20029;-77
2022/06/24 09:53:35;;;;;;;3.53;1.85;;;22.80;98.80;;;;;;4998612;28;20030;-77
2022/06/24 09:56:01;;;;;;;4.05;1.73;;;23.00;99.30;;;;;;5004525;28;20041;-85
2022/06/24 09:58:27;;;;;;;3.83;1.20;;;23.10;99.70;;;;;;5010751;28;20037;-85
2022/06/24 10:00:53;;;;;;;1.25;0.90;;;23.10;98.80;;;;;;5007372;28;20029;-84
2022/06/24 10:03:19;;;;;;;1.52;0.80;;;23.10;98.20;;;;;;4997497;28;20030;-85
2022/06/24 10:05:47;;;;;;;2.72;1.02;;;23.20;98.00;;;;;;5013148;28;20022;-84
2022/06/24 10:08:17;;;;;;;2.08;0.90;;;23.20;98.30;;;;;;5013680;28;20431;-84
2022/06/24 10:10:58;;;;;;;2.53;0.95;;;23.10;98.40;;;;;;5031266;28;20064;-87
2022/06/24 10:13:32;;;;;;;3.30;0.90;;;23.10;98.50;;;;;;5016661;28;20037;-86
2022/06/24 10:16:03;;;;;;;6.13;1.17;;;23.20;98.60;;;;;;5033592;28;20041;-85
2022/06/24 10:18:39;;;;;;;2.50;0.98;;;23.20;99.10;;;;;;5016385;28;20112;-86
2022/06/24 10:21:07;;;;;;;1.65;0.80;;;23.30;99.10;;;;;;5014046;28;20113;-87
2022/06/24 10:23:48;;;;;;;3.40;1.20;;;23.30;98.90;;;;;;5013251;28;20032;-83
2022/06/24 10:26:30;;;;;;;1.92;0.68;;;23.30;98.80;;;;;;4997212;28;20137;-84
2022/06/24 10:29:03;;;;;;;;;;;23.30;99.00;;;;;;5015197;28;20041;-83
2022/06/24 10:31:53;;;;;;;3.50;0.98;;;23.30;99.20;;;;;;5014451;28;20251;-83
2022/06/24 10:34:22;;;;;;;3.80;0.73;;;23.40;98.10;;;;;;5034058;28;20087;-80
2022/06/24 10:36:49;;;;;;;5.07;1.10;;;23.40;98.10;;;;;;5030868;28;20026;-77
2022/06/24 10:39:17;;;;;;;2.95;0.90;;;23.40;97.90;;;;;;5020969;28;20030;-76
2022/06/24 10:41:44;;;;;;;180.55;131.75;;;23.40;98.70;;;;;;5031103;28;20189;-76
2022/06/24 10:44:27;;;;;;;124.25;81.68;;;23.50;98.90;;;;;;5037686;28;20037;-76
2022/06/24 10:47:05;;;;;;;13.95;10.73;;;23.60;99.10;;;;;;5018862;28;20095;-82
2022/06/24 10:52:45;;;;;;;3.13;1.90;;;23.80;97.90;;;;;;5033467;28;20033;-81
2022/06/24 10:57:48;;;;;;;;;;;24.00;97.10;;;;;;5033924;28;20033;-83
2022/06/24 11:00:22;;;;;;;4.30;1.30;;;24.00;96.80;;;;;;5027858;28;19905;-84
2022/06/24 11:02:51;;;;;;;3.33;1.00;;;24.00;97.10;;;;;;5015822;28;20037;-86
2022/06/24 11:05:24;;;;;;;2.10;1.00;;;24.10;97.30;;;;;;5032608;28;20036;-83
2022/06/24 11:07:51;;;;;;;2.35;1.15;;;24.10;97.20;;;;;;5014230;28;20036;-83
2022/06/24 11:10:21;;;;;;;2.15;0.80;;;24.20;96.80;;;;;;5017318;28;20141;-83
2022/06/24 11:12:56;;;;;;;0.90;0.70;;;24.30;96.70;;;;;;5023548;28;20038;-80
2022/06/24 11:15:45;;;;;;;1.95;0.77;;;24.30;95.90;;;;;;5012348;28;20045;-85
2022/06/24 11:18:19;;;;;;;1.50;0.75;;;24.50;95.70;;;;;;5007955;28;20040;-86
2022/06/24 11:20:54;;;;;;;1.35;0.73;;;24.70;95.40;;;;;;5012124;28;20030;-83
2022/06/24 11:23:22;;;;;;;2.42;1.13;;;24.90;94.90;;;;;;5015569;28;20033;-84
2022/06/24 11:25:48;;;;;;;2.20;0.68;;;25.00;94.50;;;;;;5017371;28;20032;-84
2022/06/24 11:28:18;;;;;;;1.30;0.82;;;25.10;94.10;;;;;;5033425;28;20108;-83
2022/06/24 11:30:45;;;;;;;2.28;0.80;;;25.20;94.90;;;;;;4995948;28;20732;-82
2022/06/24 11:33:10;;;;;;;0.88;0.70;;;25.30;94.10;;;;;;4993075;28;20029;-85
2022/06/24 11:35:37;;;;;;;1.52;0.80;;;25.30;93.90;;;;;;5016241;28;20052;-83
2022/06/24 11:38:08;;;;;;;1.25;0.98;;;25.40;93.70;;;;;;5019213;28;20481;-83
2022/06/24 11:40:34;;;;;;;1.10;0.60;;;25.50;93.80;;;;;;5032949;28;20112;-86
2022/06/24 11:43:09;;;;;;;2.25;0.65;;;25.60;93.80;;;;;;5016173;28;20034;-78
2022/06/24 11:45:38;;;;;;;2.60;0.70;;;25.70;94.40;;;;;;5016095;28;20467;-83
2022/06/24 11:48:05;;;;;;;3.03;0.88;;;25.60;93.60;;;;;;5020066;28;20093;-82
2022/06/24 11:50:35;;;;;;;1.27;0.73;;;25.50;93.10;;;;;;5011320;28;20053;-82
2022/06/24 11:53:06;;;;;;;1.92;0.75;;;25.60;93.10;;;;;;5032953;28;20068;-82
2022/06/24 11:55:35;;;;;;;1.80;0.95;;;25.60;93.00;;;;;;5016902;28;20037;-81
2022/06/24 11:58:03;;;;;;;1.00;0.65;;;25.60;93.00;;;;;;5026542;28;20026;-80
2022/06/24 12:00:32;;;;;;;1.50;0.70;;;25.60;92.60;;;;;;5025088;28;20033;-81
2022/06/24 12:02:58;;;;;;;3.33;0.68;;;25.60;92.40;;;;;;5016532;28;20030;-79
2022/06/24 12:05:30;;;;;;;2.45;0.80;;;25.60;92.30;;;;;;5015476;28;20026;-80
2022/06/24 12:07:57;;;;;;;0.60;0.50;;;25.60;92.90;;;;;;5015430;28;20052;-80
2022/06/24 12:10:23;;;;;;;0.65;0.63;;;25.60;92.90;;;;;;5015271;28;20140;-79
2022/06/24 12:12:57;;;;;;;1.65;1.00;;;25.50;92.40;;;;;;5016098;28;20197;-80
2022/06/24 12:15:42;;;;;;;1.88;0.70;;;25.50;92.10;;;;;;5013933;28;20080;-81
2022/06/24 12:18:18;;;;;;;1.40;0.70;;;25.50;92.20;;;;;;4995176;28;20046;-83
2022/06/24 12:21:04;;;;;;;2.90;0.80;;;25.60;92.30;;;;;;5012230;28;20026;-84
2022/06/24 12:23:34;;;;;;;1.35;0.80;;;25.60;91.70;;;;;;4998715;28;20072;-84
2022/06/24 12:26:13;;;;;;;1.90;0.70;;;25.80;92.00;;;;;;4979604;28;20383;-85
2022/06/24 12:28:40;;;;;;;1.45;0.80;;;26.00;91.70;;;;;;4996788;28;20487;-85
2022/06/24 12:31:08;;;;;;;0.70;0.60;;;26.10;91.20;;;;;;4996320;28;20494;-85
2022/06/24 12:33:38;;;;;;;0.98;0.63;;;26.20;90.60;;;;;;5013065;28;20039;-82
2022/06/24 12:36:12;;;;;;;2.63;0.80;;;26.20;90.90;;;;;;5015426;28;20030;-81
2022/06/24 12:38:57;;;;;;;0.85;0.57;;;26.30;91.00;;;;;;4998406;28;20057;-82
2022/06/24 12:41:23;;;;;;;2.08;1.00;;;26.40;90.60;;;;;;5005321;28;20104;-81
2022/06/24 12:44:03;;;;;;;1.67;0.80;;;26.30;90.20;;;;;;5005215;28;20042;-82
2022/06/24 12:46:35;;;;;;;1.50;0.60;;;26.40;90.30;;;;;;5015071;28;20041;-83
2022/06/24 12:51:55;;;;;;;1.00;0.70;;;26.40;90.40;;;;;;5016013;28;20037;-83
2022/06/24 12:54:20;;;;;;;0.82;0.60;;;26.60;89.90;;;;;;4998864;28;20038;-80
2022/06/24 12:56:46;;;;;;;0.80;0.80;;;26.60;88.50;;;;;;4994348;28;20023;-79
2022/06/24 12:59:11;;;;;;;1.02;0.65;;;26.80;90.10;;;;;;5011216;28;20077;-80
2022/06/24 13:01:45;;;;;;;1.08;0.47;;;26.90;89.40;;;;;;5014494;28;20022;-81
2022/06/24 13:04:13;;;;;;;1.23;0.68;;;27.20;86.80;;;;;;4997755;28;20085;-80
2022/06/24 13:06:42;;;;;;;1.58;0.52;;;27.40;87.20;;;;;;5014545;28;20028;-81
2022/06/24 13:09:09;;;;;;;1.42;0.57;;;27.70;86.60;;;;;;5014903;28;20117;-81
2022/06/24 13:11:35;;;;;;;1.05;0.57;;;27.80;84.90;;;;;;4997541;28;20036;-81